Fort Ross, California
Current Conditions -  °F | °C
As of 12:30 AM on Saturday 29 Nov 2014 (Local Time) from KSTS Reporting Station
Light Rain Light Rain  
Wind Chill: 13°   Ceiling: 300
Heat Index: 13°   Visibility: 5mi
Dew Point: 13°   Wind: 0mph
Humidity: 100%   Direction: NA
Pressure: 29.81"   Gusts: NA
Location:  38.4962°N, 123.173°W
Report Text: KSTS 290830Z AUTO 00000KT 5SM -RA BR OVC003 13/13 A2981 RMK AO2 P0000
Loading
Personal Weather Stations






























Interactive Weather Map New forecast layout! Learn more

10-Day Weather Forecast

Advertisements
Track Severe Weather on mobile